createdAt,value
2023-05-27T00:01:14.049Z,7.50
2023-05-27T00:03:43.990Z,9.23
2023-05-27T00:06:13.628Z,8.10
2023-05-27T00:08:43.046Z,10.23
2023-05-27T00:11:12.550Z,8.53
2023-05-27T00:13:42.056Z,8.90
2023-05-27T00:16:12.308Z,9.97
2023-05-27T00:18:41.853Z,7.60
2023-05-27T00:21:11.414Z,8.03
2023-05-27T00:23:40.836Z,8.67
2023-05-27T00:26:10.285Z,7.47
2023-05-27T00:28:40.323Z,10.25
2023-05-27T00:31:09.876Z,9.58
2023-05-27T00:33:40.319Z,10.63
2023-05-27T00:36:09.919Z,10.18
2023-05-27T00:38:39.384Z,12.43
2023-05-27T00:41:11.299Z,8.80
2023-05-27T00:43:41.242Z,9.13
2023-05-27T00:46:11.096Z,8.48
2023-05-27T00:48:40.839Z,12.50
2023-05-27T00:51:10.633Z,11.55
2023-05-27T00:53:42.470Z,12.43
2023-05-27T00:56:14.001Z,13.35
2023-05-27T00:58:44.991Z,10.38
2023-05-27T01:01:14.843Z,9.83
2023-05-27T01:03:44.637Z,8.60
2023-05-27T01:06:31.548Z,9.85
2023-05-27T01:09:13.179Z,9.30
2023-05-27T01:12:12.461Z,9.25
2023-05-27T01:14:44.937Z,10.65
2023-05-27T01:17:17.160Z,11.05
2023-05-27T01:19:47.508Z,10.05
2023-05-27T01:24:47.225Z,10.68
2023-05-27T01:27:16.840Z,9.90
2023-05-27T01:29:46.565Z,10.08
2023-05-27T01:32:48.127Z,8.20
2023-05-27T01:35:35.350Z,7.30
2023-05-27T01:38:07.903Z,9.23
2023-05-27T01:40:39.631Z,9.15
2023-05-27T01:43:11.266Z,8.85
2023-05-27T01:45:43.776Z,7.28
2023-05-27T01:48:13.508Z,7.17
2023-05-27T01:50:43.225Z,6.40
2023-05-27T01:53:14.186Z,5.87
2023-05-27T01:55:44.086Z,6.65
2023-05-27T01:58:14.606Z,8.88
2023-05-27T02:00:44.175Z,7.70
2023-05-27T02:03:13.801Z,6.22
2023-05-27T02:05:43.984Z,6.17
2023-05-27T02:08:13.534Z,6.95
2023-05-27T02:10:43.371Z,5.78
2023-05-27T02:13:12.842Z,7.07
2023-05-27T02:15:44.075Z,6.33
2023-05-27T02:18:14.156Z,7.05
2023-05-27T02:20:44.322Z,6.37
2023-05-27T02:23:13.945Z,9.00
2023-05-27T02:25:43.479Z,6.23
2023-05-27T02:28:14.013Z,5.80
2023-05-27T02:30:43.598Z,6.87
2023-05-27T02:33:13.184Z,8.83
2023-05-27T02:35:42.794Z,6.30
2023-05-27T02:38:12.327Z,7.60
2023-05-27T02:40:41.737Z,8.07
2023-05-27T02:43:11.826Z,7.65
2023-05-27T02:45:41.312Z,8.43
2023-05-27T02:48:10.855Z,7.80
2023-05-27T02:53:09.806Z,7.05
2023-05-27T02:55:39.432Z,8.53
2023-05-27T02:58:09.123Z,6.60
2023-05-27T03:00:38.640Z,7.53
2023-05-27T03:03:09.148Z,7.30
2023-05-27T03:05:38.876Z,8.43
2023-05-27T03:08:08.464Z,7.50
2023-05-27T03:10:38.132Z,6.78
2023-05-27T03:13:07.647Z,7.43
2023-05-27T03:15:37.088Z,8.30
2023-05-27T03:18:07.392Z,6.80
2023-05-27T03:20:36.909Z,7.60
2023-05-27T03:23:06.771Z,7.80
2023-05-27T03:25:36.327Z,8.20
2023-05-27T03:28:06.039Z,7.22
2023-05-27T03:30:36.355Z,7.50
2023-05-27T03:33:06.494Z,7.10
2023-05-27T03:35:37.703Z,8.85
2023-05-27T03:38:07.385Z,8.77
2023-05-27T03:40:36.857Z,9.53
2023-05-27T03:43:08.109Z,8.05
2023-05-27T03:45:37.735Z,7.08
2023-05-27T03:48:07.552Z,7.37
2023-05-27T03:50:37.084Z,6.90
2023-05-27T03:53:06.752Z,6.70
2023-05-27T03:55:36.538Z,7.37
2023-05-27T03:58:05.963Z,7.28
2023-05-27T04:00:36.541Z,7.60
2023-05-27T04:03:07.857Z,9.00
2023-05-27T04:05:37.867Z,7.90
2023-05-27T04:08:07.541Z,7.65
2023-05-27T04:10:36.976Z,8.43
2023-05-27T04:13:06.481Z,8.23
2023-05-27T04:15:36.779Z,8.28
2023-05-27T04:18:07.598Z,8.05
2023-05-27T04:20:41.398Z,7.15
2023-05-27T04:23:11.907Z,8.30
2023-05-27T04:28:12.058Z,8.10
2023-05-27T04:30:43.341Z,7.67
2023-05-27T04:33:18.083Z,6.85
2023-05-27T04:35:48.823Z,7.25
2023-05-27T04:38:21.107Z,7.70
2023-05-27T04:40:56.378Z,7.92
2023-05-27T04:43:39.833Z,7.08
2023-05-27T04:46:09.458Z,7.07
2023-05-27T04:48:39.034Z,8.10
2023-05-27T04:51:08.549Z,8.00
2023-05-27T04:53:38.043Z,8.50
2023-05-27T04:56:09.399Z,8.60
2023-05-27T04:58:40.583Z,8.90
2023-05-27T05:01:11.824Z,8.33
2023-05-27T05:03:42.887Z,7.92
2023-05-27T05:06:12.734Z,8.65
2023-05-27T05:08:42.344Z,8.95
2023-05-27T05:11:11.929Z,8.50
2023-05-27T05:13:41.526Z,8.13
2023-05-27T05:16:11.514Z,9.80
2023-05-27T05:18:41.349Z,7.97
2023-05-27T05:21:10.860Z,7.05
2023-05-27T05:23:42.466Z,7.50
2023-05-27T05:26:11.948Z,7.33
2023-05-27T05:28:42.970Z,6.62
2023-05-27T05:33:41.895Z,8.23
2023-05-27T05:36:11.504Z,9.40
2023-05-27T05:38:45.626Z,8.83
2023-05-27T05:41:15.611Z,8.33
2023-05-27T05:43:45.492Z,8.55
2023-05-27T05:46:15.797Z,7.62
2023-05-27T05:48:45.447Z,6.65
2023-05-27T05:51:16.844Z,8.30
2023-05-27T05:53:48.063Z,8.85
2023-05-27T05:56:17.625Z,7.47
2023-05-27T05:58:47.134Z,7.20
2023-05-27T06:01:17.947Z,8.38
2023-05-27T06:06:18.172Z,6.97
2023-05-27T06:09:06.416Z,6.78
2023-05-27T06:11:36.115Z,9.83
2023-05-27T06:14:05.971Z,7.97
2023-05-27T06:16:40.049Z,7.85
2023-05-27T06:19:09.723Z,7.97
2023-05-27T06:21:39.318Z,7.08
2023-05-27T06:24:10.548Z,7.25
2023-05-27T06:26:41.713Z,6.33
2023-05-27T06:29:11.236Z,7.03
2023-05-27T06:31:40.708Z,7.12
2023-05-27T06:34:10.218Z,8.10
2023-05-27T06:36:39.689Z,7.30
2023-05-27T06:39:10.022Z,6.62
2023-05-27T06:41:40.110Z,5.75
2023-05-27T06:44:27.701Z,7.65
2023-05-27T06:47:03.126Z,5.75
2023-05-27T06:49:33.244Z,4.87
2023-05-27T06:52:07.348Z,5.42
2023-05-27T06:54:39.049Z,5.55
2023-05-27T06:57:13.296Z,5.22
2023-05-27T06:59:50.469Z,4.40
2023-05-27T07:02:20.056Z,5.00
2023-05-27T07:04:49.656Z,4.62
2023-05-27T07:07:19.603Z,3.57
2023-05-27T07:09:49.280Z,4.55
2023-05-27T07:12:19.232Z,2.60
2023-05-27T07:14:50.517Z,3.47
2023-05-27T07:17:20.164Z,3.15
2023-05-27T07:19:49.981Z,3.90
2023-05-27T07:22:21.275Z,3.80
2023-05-27T07:24:50.973Z,4.28
2023-05-27T07:27:21.760Z,3.65
2023-05-27T07:29:53.032Z,3.50
2023-05-27T07:32:24.402Z,2.83
2023-05-27T07:34:54.323Z,3.77
2023-05-27T07:37:26.627Z,3.00
2023-05-27T07:39:56.110Z,3.12
2023-05-27T07:42:26.279Z,3.10
2023-05-27T07:44:56.434Z,3.10
2023-05-27T07:47:26.524Z,3.30
2023-05-27T07:49:56.043Z,2.35
2023-05-27T07:52:43.938Z,3.25
2023-05-27T07:55:24.437Z,3.67
2023-05-27T07:57:54.749Z,2.93
2023-05-27T08:00:25.132Z,3.05
2023-05-27T08:02:56.823Z,3.72
2023-05-27T08:05:44.544Z,2.70
2023-05-27T08:08:16.258Z,4.12
2023-05-27T08:10:59.729Z,2.77
2023-05-27T08:13:30.941Z,2.60
2023-05-27T08:16:02.121Z,2.47
2023-05-27T08:18:39.474Z,4.67
2023-05-27T08:21:10.580Z,3.83
2023-05-27T08:23:41.803Z,4.08
2023-05-27T08:26:15.745Z,3.20
2023-05-27T08:28:49.741Z,3.60
2023-05-27T08:31:32.933Z,3.60
2023-05-27T08:34:04.285Z,3.37
2023-05-27T08:36:35.451Z,4.17
2023-05-27T08:39:06.205Z,4.53
2023-05-27T08:41:38.314Z,3.87
2023-05-27T08:46:39.523Z,3.47
2023-05-27T08:49:09.155Z,3.92
2023-05-27T08:51:41.240Z,3.62
2023-05-27T08:54:11.279Z,3.45
2023-05-27T08:56:42.183Z,3.95
2023-05-27T08:59:14.028Z,4.60
2023-05-27T09:01:44.764Z,3.47
2023-05-27T09:04:15.380Z,4.53
2023-05-27T09:06:44.980Z,3.22
2023-05-27T09:09:14.683Z,3.55
2023-05-27T09:11:44.455Z,4.37
2023-05-27T09:14:23.427Z,4.78
2023-05-27T09:16:52.968Z,3.75
2023-05-27T09:19:22.784Z,3.83
2023-05-27T09:21:54.417Z,3.70
2023-05-27T09:24:25.562Z,4.05
2023-05-27T09:26:56.505Z,6.03
2023-05-27T09:29:27.057Z,4.53
2023-05-27T09:31:57.622Z,3.00
2023-05-27T09:34:28.906Z,3.30
2023-05-27T09:36:59.765Z,4.15
2023-05-27T09:39:29.247Z,4.42
2023-05-27T09:42:00.147Z,4.00
2023-05-27T09:44:37.369Z,2.70
2023-05-27T09:47:07.248Z,4.03
2023-05-27T09:49:39.623Z,3.12
2023-05-27T09:52:11.784Z,4.95
2023-05-27T09:54:41.517Z,3.58
2023-05-27T09:57:12.605Z,3.17
2023-05-27T09:59:43.351Z,3.87
2023-05-27T10:02:15.801Z,4.17
2023-05-27T10:04:46.383Z,4.55
2023-05-27T10:07:18.542Z,4.85
2023-05-27T10:09:49.274Z,3.22
2023-05-27T10:12:19.279Z,5.97
2023-05-27T10:14:50.134Z,4.25
2023-05-27T10:17:19.577Z,3.90
2023-05-27T10:19:57.589Z,4.60
2023-05-27T10:22:27.170Z,3.95
2023-05-27T10:24:56.695Z,3.87
2023-05-27T10:27:26.149Z,4.58
2023-05-27T10:30:01.615Z,4.03
2023-05-27T10:32:31.320Z,3.52
2023-05-27T10:35:01.661Z,3.58
2023-05-27T10:40:01.758Z,3.50
2023-05-27T10:42:31.242Z,4.35
2023-05-27T10:45:08.692Z,3.70
2023-05-27T10:47:38.675Z,4.08
2023-05-27T10:50:15.671Z,2.85
2023-05-27T10:52:45.144Z,3.33
2023-05-27T10:55:15.202Z,4.07
2023-05-27T10:57:44.624Z,3.25
2023-05-27T11:00:17.973Z,3.77
2023-05-27T11:02:48.780Z,4.28
2023-05-27T11:05:19.786Z,3.62
2023-05-27T11:07:49.182Z,3.92
2023-05-27T11:10:18.862Z,4.03
2023-05-27T11:12:49.523Z,4.22
2023-05-27T11:15:20.850Z,3.33
2023-05-27T11:17:50.644Z,3.62
2023-05-27T11:20:20.262Z,3.35
2023-05-27T11:22:53.091Z,4.10
2023-05-27T11:25:22.534Z,4.35
2023-05-27T11:27:52.035Z,4.17
2023-05-27T11:30:28.284Z,2.00
2023-05-27T11:33:04.109Z,4.33
2023-05-27T11:35:32.713Z,3.40
2023-05-27T11:38:03.335Z,4.53
2023-05-27T11:40:39.872Z,3.08
2023-05-27T11:43:09.333Z,4.03
2023-05-27T11:45:39.601Z,3.23
2023-05-27T11:48:10.691Z,4.28
2023-05-27T11:50:40.254Z,3.25
2023-05-27T11:53:09.748Z,4.58
2023-05-27T11:55:40.885Z,3.33
2023-05-27T11:58:10.448Z,4.95
2023-05-27T12:00:39.869Z,3.07
2023-05-27T12:03:09.511Z,3.90
2023-05-27T12:05:39.157Z,3.08
2023-05-27T12:08:08.724Z,4.12
2023-05-27T12:10:38.195Z,3.40
2023-05-27T12:13:08.306Z,4.23
2023-05-27T12:15:37.819Z,3.67
2023-05-27T12:18:07.729Z,4.57
2023-05-27T12:20:37.301Z,3.05
2023-05-27T12:23:06.793Z,3.57
2023-05-27T12:25:36.270Z,4.87
2023-05-27T12:28:07.658Z,15.57
2023-05-27T12:30:38.159Z,13.60
2023-05-27T12:33:08.408Z,5.05
2023-05-27T12:38:06.549Z,4.53
2023-05-27T12:40:35.990Z,3.33
2023-05-27T12:43:06.272Z,3.20
2023-05-27T12:45:35.905Z,3.60
2023-05-27T12:48:05.544Z,3.25
2023-05-27T12:50:35.209Z,3.83
2023-05-27T12:53:06.084Z,3.83
2023-05-27T12:55:36.262Z,4.67
2023-05-27T12:58:05.884Z,4.03
2023-05-27T13:00:35.555Z,3.37
2023-05-27T13:03:05.351Z,3.25
2023-05-27T13:05:34.905Z,3.95
2023-05-27T13:08:08.566Z,3.52
2023-05-27T13:10:38.211Z,3.98
2023-05-27T13:13:07.850Z,4.17
2023-05-27T13:15:38.251Z,3.85
2023-05-27T13:20:37.893Z,3.77
2023-05-27T13:23:07.435Z,2.95
2023-05-27T13:25:36.944Z,3.65
2023-05-27T13:28:06.466Z,3.73
2023-05-27T13:30:36.003Z,3.30
2023-05-27T13:33:05.828Z,4.20
2023-05-27T13:35:35.289Z,3.70
2023-05-27T13:38:06.441Z,2.90
2023-05-27T13:40:35.844Z,2.72
2023-05-27T13:43:05.348Z,3.25
2023-05-27T13:45:34.830Z,3.65
2023-05-27T13:48:04.481Z,3.17
2023-05-27T13:50:34.030Z,4.08
2023-05-27T13:53:03.552Z,3.93
2023-05-27T13:55:33.142Z,3.50
2023-05-27T13:58:03.420Z,2.77
2023-05-27T14:03:01.801Z,3.45
2023-05-27T14:05:31.243Z,3.83
2023-05-27T14:08:02.370Z,5.20
2023-05-27T14:10:35.172Z,3.17
2023-05-27T14:13:06.012Z,3.85
2023-05-27T14:15:36.455Z,4.80
2023-05-27T14:18:06.713Z,2.77
2023-05-27T14:23:10.632Z,3.47
2023-05-27T14:25:40.880Z,3.10
2023-05-27T14:28:10.747Z,3.67
2023-05-27T14:30:40.363Z,2.87
2023-05-27T14:33:11.140Z,4.20
2023-05-27T14:35:41.708Z,3.55
2023-05-27T14:38:11.471Z,3.72
2023-05-27T14:40:41.063Z,3.15
2023-05-27T14:43:10.462Z,2.73
2023-05-27T14:45:40.202Z,3.72
2023-05-27T14:48:09.767Z,3.55
2023-05-27T14:50:39.277Z,4.10
2023-05-27T14:53:08.763Z,4.07
2023-05-27T14:55:38.358Z,4.33
2023-05-27T14:58:07.957Z,2.87
2023-05-27T15:00:37.466Z,3.13
2023-05-27T15:03:06.945Z,3.85
2023-05-27T15:05:36.941Z,3.77
2023-05-27T15:08:08.047Z,2.77
2023-05-27T15:10:37.685Z,3.58
2023-05-27T15:13:07.094Z,4.10
2023-05-27T15:15:38.240Z,3.55
2023-05-27T15:18:08.886Z,3.33
2023-05-27T15:20:38.679Z,3.42
2023-05-27T15:23:08.280Z,4.00
2023-05-27T15:25:38.186Z,3.97
2023-05-27T15:28:07.746Z,4.08
2023-05-27T15:30:37.196Z,3.97
2023-05-27T15:33:06.959Z,2.63
2023-05-27T15:35:36.875Z,3.67
2023-05-27T15:38:06.407Z,4.70
2023-05-27T15:40:37.501Z,3.47
2023-05-27T15:43:06.988Z,3.02
2023-05-27T15:45:39.348Z,3.30
2023-05-27T15:48:11.055Z,2.58
2023-05-27T15:50:43.174Z,2.87
2023-05-27T15:53:12.585Z,4.30
2023-05-27T15:55:42.982Z,2.80
2023-05-27T16:00:41.194Z,4.17
2023-05-27T16:03:10.723Z,4.15
2023-05-27T16:05:40.260Z,4.93
2023-05-27T16:08:09.970Z,4.80
2023-05-27T16:10:52.763Z,4.28
2023-05-27T16:13:26.427Z,5.37
2023-05-27T16:15:56.826Z,4.33
2023-05-27T16:20:55.435Z,6.50
2023-05-27T16:23:25.429Z,3.90
2023-05-27T16:25:54.978Z,5.07
2023-05-27T16:28:24.509Z,5.77
2023-05-27T16:30:54.541Z,4.43
2023-05-27T16:33:24.250Z,5.00
2023-05-27T16:35:54.858Z,6.08
2023-05-27T16:38:24.372Z,5.28
2023-05-27T16:40:53.960Z,4.47
2023-05-27T16:43:23.541Z,5.53
2023-05-27T16:45:53.220Z,5.23
2023-05-27T16:48:22.890Z,4.58
2023-05-27T16:50:52.536Z,3.65
2023-05-27T16:53:22.115Z,5.12
2023-05-27T16:55:51.711Z,5.77
2023-05-27T16:58:21.433Z,4.78
2023-05-27T17:01:01.985Z,4.75
2023-05-27T17:03:31.839Z,5.75
2023-05-27T17:06:01.582Z,5.92
2023-05-27T17:08:31.021Z,5.25
2023-05-27T17:11:00.427Z,6.30
2023-05-27T17:13:29.914Z,4.63
2023-05-27T17:15:59.588Z,5.47
2023-05-27T17:18:29.033Z,6.62
2023-05-27T17:20:58.631Z,6.10
2023-05-27T17:23:28.287Z,6.10
2023-05-27T17:25:57.767Z,6.15
2023-05-27T17:28:27.247Z,5.90
2023-05-27T17:30:56.965Z,5.80
2023-05-27T17:33:26.382Z,5.85
2023-05-27T17:35:55.952Z,5.58
2023-05-27T17:38:27.217Z,5.43
2023-05-27T17:40:57.349Z,5.08
2023-05-27T17:43:27.158Z,4.53
2023-05-27T17:45:58.026Z,6.00
2023-05-27T17:48:27.588Z,5.87
2023-05-27T17:50:57.570Z,5.00
2023-05-27T17:53:27.158Z,5.55
2023-05-27T17:55:56.666Z,4.92
2023-05-27T17:58:26.244Z,5.20
2023-05-27T18:00:56.296Z,6.30
2023-05-27T18:03:26.191Z,5.92
2023-05-27T18:05:55.845Z,7.35
2023-05-27T18:08:25.462Z,5.17
2023-05-27T18:10:54.994Z,5.25
2023-05-27T18:13:24.501Z,6.40
2023-05-27T18:15:55.646Z,5.77
2023-05-27T18:18:25.191Z,5.75
2023-05-27T18:20:56.481Z,6.07
2023-05-27T18:23:25.992Z,6.00
2023-05-27T18:25:55.442Z,6.00
2023-05-27T18:28:25.036Z,5.50
2023-05-27T18:30:54.537Z,6.03
2023-05-27T18:33:24.203Z,5.93
2023-05-27T18:35:53.700Z,5.45
2023-05-27T18:38:23.254Z,6.60
2023-05-27T18:40:53.606Z,4.80
2023-05-27T18:45:59.748Z,5.92
2023-05-27T18:48:31.311Z,6.47
2023-05-27T18:51:01.364Z,7.55
2023-05-27T18:53:30.796Z,7.47
2023-05-27T18:56:00.282Z,6.23
2023-05-27T18:58:29.747Z,6.60
2023-05-27T19:00:59.159Z,6.30
2023-05-27T19:03:28.743Z,5.78
2023-05-27T19:05:58.221Z,7.57
2023-05-27T19:08:28.625Z,8.20
2023-05-27T19:10:58.149Z,8.68
2023-05-27T19:13:27.719Z,11.00
2023-05-27T19:15:57.366Z,9.67
2023-05-27T19:18:27.329Z,10.82
2023-05-27T19:20:56.886Z,12.37
2023-05-27T19:23:26.409Z,12.80
2023-05-27T19:25:55.987Z,12.88
2023-05-27T19:28:25.636Z,10.40
2023-05-27T19:30:57.167Z,8.40
2023-05-27T19:33:26.576Z,4.90
2023-05-27T19:35:57.731Z,6.60
2023-05-27T19:38:27.284Z,6.42
2023-05-27T19:40:58.442Z,7.60
2023-05-27T19:43:28.221Z,5.67
2023-05-27T19:45:57.766Z,7.20
2023-05-27T19:48:27.184Z,5.80
2023-05-27T19:50:57.216Z,13.38
2023-05-27T19:53:33.183Z,8.93
2023-05-27T19:56:04.343Z,6.80
2023-05-27T19:58:34.659Z,10.08
2023-05-27T20:03:33.667Z,8.00
2023-05-27T20:06:03.198Z,7.55
2023-05-27T20:08:33.003Z,9.60
2023-05-27T20:11:03.097Z,21.05
2023-05-27T20:13:32.556Z,44.05
2023-05-27T20:16:02.156Z,41.85
2023-05-27T20:18:32.019Z,27.27
2023-05-27T20:21:01.482Z,20.52
2023-05-27T20:23:30.904Z,18.30
2023-05-27T20:26:00.531Z,13.95
2023-05-27T20:28:30.020Z,13.68
2023-05-27T20:30:59.650Z,12.53
2023-05-27T20:33:29.037Z,12.45
2023-05-27T20:35:58.490Z,18.05
2023-05-27T20:38:28.023Z,17.20
2023-05-27T20:40:57.512Z,10.17
2023-05-27T20:43:26.919Z,9.40
2023-05-27T20:45:56.652Z,9.93
2023-05-27T20:48:26.118Z,9.45
2023-05-27T20:50:55.870Z,8.05
2023-05-27T20:53:25.341Z,9.55
2023-05-27T20:55:54.884Z,9.43
2023-05-27T20:58:25.508Z,11.00
2023-05-27T21:00:55.294Z,9.75
2023-05-27T21:03:24.963Z,10.48
2023-05-27T21:05:54.623Z,13.32
2023-05-27T21:08:24.202Z,11.40
2023-05-27T21:10:54.003Z,15.40
2023-05-27T21:13:23.572Z,12.37
2023-05-27T21:15:53.180Z,13.43
2023-05-27T21:18:22.825Z,10.55
2023-05-27T21:20:52.595Z,12.90
2023-05-27T21:23:23.817Z,11.83
2023-05-27T21:25:54.243Z,10.00
2023-05-27T21:28:23.710Z,9.28
2023-05-27T21:30:53.561Z,10.68
2023-05-27T21:33:23.270Z,29.37
2023-05-27T21:35:53.295Z,17.40
2023-05-27T21:38:23.873Z,11.90
2023-05-27T21:43:21.911Z,7.37
2023-05-27T21:45:51.574Z,8.28
2023-05-27T21:48:21.525Z,7.33
2023-05-27T21:50:51.232Z,7.85
2023-05-27T21:53:20.677Z,7.97
2023-05-27T21:55:50.085Z,7.33
2023-05-27T21:58:19.638Z,7.87
2023-05-27T22:00:49.121Z,10.87
2023-05-27T22:03:18.818Z,11.35
2023-05-27T22:05:49.823Z,10.90
2023-05-27T22:08:19.348Z,9.15
2023-05-27T22:10:49.696Z,10.50
2023-05-27T22:15:49.476Z,10.35
2023-05-27T22:18:19.068Z,11.08
2023-05-27T22:20:48.590Z,12.03
2023-05-27T22:23:19.394Z,7.73
2023-05-27T22:25:48.799Z,6.40
2023-05-27T22:28:18.322Z,8.38
2023-05-27T22:30:47.809Z,8.30
2023-05-27T22:33:17.392Z,7.37
2023-05-27T22:35:46.806Z,9.23
2023-05-27T22:38:16.395Z,9.75
2023-05-27T22:40:45.871Z,11.33
2023-05-27T22:43:15.395Z,8.60
2023-05-27T22:45:44.936Z,10.80
2023-05-27T22:48:14.428Z,9.63
2023-05-27T22:50:43.798Z,8.30
2023-05-27T22:53:13.245Z,8.10
2023-05-27T22:55:42.651Z,7.72
2023-05-27T22:58:12.167Z,8.90
2023-05-27T23:00:41.573Z,7.90
2023-05-27T23:03:13.048Z,7.05
2023-05-27T23:05:42.920Z,7.17
2023-05-27T23:08:12.438Z,7.62
2023-05-27T23:10:41.841Z,8.23
2023-05-27T23:13:11.304Z,6.35
2023-05-27T23:15:40.765Z,8.70
2023-05-27T23:18:10.371Z,6.73
2023-05-27T23:20:39.936Z,7.62
2023-05-27T23:23:09.486Z,8.03
2023-05-27T23:25:39.130Z,10.30
2023-05-27T23:28:09.391Z,9.25
2023-05-27T23:30:38.868Z,8.93
2023-05-27T23:33:08.442Z,5.70
2023-05-27T23:35:37.886Z,7.23
2023-05-27T23:38:07.322Z,6.62
2023-05-27T23:40:37.572Z,6.75
2023-05-27T23:43:07.088Z,6.47
2023-05-27T23:45:36.681Z,6.53
2023-05-27T23:48:06.314Z,6.47
2023-05-27T23:50:35.818Z,6.62
2023-05-27T23:53:05.506Z,7.55
2023-05-27T23:55:34.932Z,7.72
2023-05-27T23:58:04.446Z,5.80
